Berea, Ohio
Current Conditions -  °F | °C
As of 12:51 PM on Thursday 29 Jan 2015 (Local Time) from KCLE Reporting Station
Light Snow Light Snow  
Wind Chill: 27°   Ceiling: 3700
Heat Index: 36°   Visibility: 7mi
Dew Point: 29°   Wind: 14mph
Humidity: 76%   Direction: 190°S
Pressure: 29.78"   Gusts: 22mph
Location:  41.37°N, 81.85°W
Report Text: KCLE 291751Z 19012G19KT 7SM -SN OVC037 02/M02 A2978 RMK AO2 SLP091 SNB39 4/001 P0000 60001 T00221017 10022 20000 58024 $
Loading
Personal Weather Stations






























Interactive Weather Map New forecast layout! Learn more

10-Day Weather Forecast

Advertisements
Track Severe Weather on mobile